Terminal Aerodrome Forecast
Issued by NWS

Home | Current Version | Previous Version | Text Only | Print | Product List | Glossary On
Versions: 1 2 3 4 5 6 7 8 9 10 11 12 13 14
000
FTUS46 KOTX 161139
TAFPUW
TAF
KPUW 161139Z 1612/1712 24006KT P6SM BKN070 OVC120
     FM161600 24008KT P6SM -RA BKN040 OVC060
     FM161900 22010G18KT P6SM -SHRA BKN050 OVC070
     FM170100 19007KT P6SM BKN120 OVC200
     FM170500 16009KT P6SM BKN100 OVC200=

USA.gov is the U.S. government's official web portal to all federal, state and local government web resources and services.